Time;durP1;ratioP1;P1;durP2;ratioP2;P2;SDS_P1;SDS_P2;PMS_P1;PMS_P2;Temp;Humidity;BMP_temperature;BMP_pressure;BME280_temperature;BME280_humidity;BME280_pressure;Samples;Min_cycle;Max_cycle;Signal;HPM_P1;HPM_P2
2024/02/15 00:05:43;;;;;;;;;;;5.00;99.90;;;;;;21335849;27;20334;-78
2024/02/15 00:15:44;;;;;;;;;;;5.20;99.90;;;;;;21354629;27;19919;-78
2024/02/15 00:25:44;;;;;;;;;;;5.00;99.90;;;;;;21347163;27;20301;-79
2024/02/15 00:35:45;;;;;;;;;;;4.90;99.90;;;;;;21332465;27;19972;-79
2024/02/15 00:45:46;;;;;;;;;;;4.60;99.90;;;;;;21350410;27;19927;-79
2024/02/15 00:55:46;;;;;;;;;;;4.60;99.90;;;;;;21352041;27;20002;-77
2024/02/15 01:05:47;;;;;;;;;;;4.60;99.90;;;;;;21367343;27;19922;-79
2024/02/15 01:15:48;;;;;;;;;;;4.80;99.90;;;;;;21372472;27;20474;-78
2024/02/15 01:25:48;;;;;;;;;;;4.80;99.90;;;;;;21348604;27;19979;-79
2024/02/15 01:35:49;;;;;;;;;;;4.70;99.90;;;;;;21347256;27;20009;-79
2024/02/15 01:45:51;;;;;;;;;;;4.30;99.90;;;;;;21369622;27;20006;-79
2024/02/15 01:55:57;;;;;;;;;;;4.30;99.90;;;;;;21362623;27;19911;-78
2024/02/15 02:05:59;;;;;;;;;;;4.30;99.90;;;;;;21364370;27;19915;-79
2024/02/15 02:16:00;;;;;;;;;;;4.20;99.90;;;;;;21343900;27;19910;-79
2024/02/15 02:26:03;;;;;;;;;;;3.90;99.90;;;;;;21361083;27;20209;-76
2024/02/15 02:36:09;;;;;;;;;;;4.00;99.90;;;;;;21365119;27;19911;-79
2024/02/15 02:46:10;;;;;;;;;;;4.10;99.90;;;;;;21354814;27;20373;-78
2024/02/15 02:56:12;;;;;;;;;;;4.10;99.90;;;;;;21336501;27;19918;-78
2024/02/15 03:06:13;;;;;;;;;;;4.00;99.90;;;;;;21347331;27;20369;-78
2024/02/15 03:16:14;;;;;;;;;;;4.10;99.90;;;;;;21353101;27;19950;-79
2024/02/15 03:26:15;;;;;;;;;;;4.00;99.90;;;;;;21354976;27;19942;-79
2024/02/15 03:36:18;;;;;;;;;;;3.70;99.90;;;;;;21357713;27;19939;-79
2024/02/15 03:46:18;;;;;;;;;;;3.80;99.90;;;;;;21356801;27;19963;-78
2024/02/15 03:56:22;;;;;;;;;;;3.70;99.90;;;;;;21352610;27;19911;-78
2024/02/15 04:06:24;;;;;;;;;;;3.50;99.90;;;;;;21334667;27;19923;-79
2024/02/15 04:16:26;;;;;;;;;;;3.80;99.90;;;;;;21269297;27;19926;-77
2024/02/15 04:26:26;;;;;;;;;;;3.90;99.90;;;;;;21271467;27;19911;-78
2024/02/15 04:36:33;;;;;;;;;;;3.60;99.90;;;;;;21266306;27;19920;-79
2024/02/15 04:46:34;;;;;;;;;;;3.60;99.90;;;;;;21267390;27;19915;-79
2024/02/15 04:56:36;;;;;;;;;;;3.70;99.90;;;;;;21234675;28;19915;-78
2024/02/15 05:06:36;;;;;;;;;;;3.70;99.90;;;;;;21327634;27;19907;-77
2024/02/15 05:16:42;;;;;;;;;;;3.80;99.90;;;;;;21393134;27;19961;-77
2024/02/15 05:26:50;;;;;;;;;;;3.40;99.90;;;;;;21370321;27;19919;-80
2024/02/15 05:36:51;;;;;;;;;;;3.30;99.90;;;;;;21362190;27;19922;-79
2024/02/15 05:46:52;;;;;;;;;;;3.60;99.90;;;;;;21373696;27;19918;-79
2024/02/15 05:56:55;;;;;;;;;;;3.60;99.90;;;;;;21372544;27;19915;-79
2024/02/15 06:07:00;;;;;;;;;;;3.70;99.90;;;;;;21373339;27;19915;-79
2024/02/15 06:17:02;;;;;;;;;;;4.00;99.90;;;;;;21366081;27;20023;-80
2024/02/15 06:27:02;;;;;;;;;;;3.90;99.90;;;;;;21355609;27;19923;-79
2024/02/15 06:47:22;;;;;;;;;;;3.90;99.90;;;;;;21353780;27;19934;-80
2024/02/15 06:57:23;;;;;;;;;;;4.20;99.90;;;;;;21352491;27;19983;-80
2024/02/15 07:07:24;;;;;;;;;;;4.30;99.90;;;;;;21353096;27;19990;-80
2024/02/15 07:17:24;;;;;;;;;;;4.60;99.90;;;;;;21337510;27;19922;-80
2024/02/15 07:27:25;;;;;;;;;;;4.70;99.90;;;;;;21349770;27;19911;-80
2024/02/15 07:37:26;;;;;;;;;;;4.80;99.90;;;;;;21346617;27;19994;-81
2024/02/15 07:47:27;;;;;;;;;;;4.80;99.90;;;;;;21352790;27;20285;-80
2024/02/15 07:57:28;;;;;;;;;;;5.10;99.90;;;;;;21346648;27;20407;-80
2024/02/15 08:07:31;;;;;;;;;;;5.60;99.90;;;;;;21337008;27;19960;-80
2024/02/15 08:17:32;;;;;;;;;;;6.00;99.90;;;;;;21354063;27;19922;-79
2024/02/15 08:27:33;;;;;;;;;;;6.20;99.90;;;;;;21353935;27;19911;-80
2024/02/15 08:37:35;;;;;;;;;;;6.20;99.90;;;;;;21348054;27;19915;-81
2024/02/15 08:47:37;;;;;;;;;;;6.10;99.90;;;;;;21351208;27;19911;-82
2024/02/15 08:57:40;;;;;;;;;;;6.30;99.90;;;;;;21334616;27;19974;-80
2024/02/15 09:07:42;;;;;;;;;;;6.40;99.90;;;;;;21346834;27;19946;-82
2024/02/15 09:17:44;;;;;;;;;;;6.40;99.90;;;;;;21359760;27;19915;-79
2024/02/15 09:27:45;;;;;;;;;;;6.80;99.90;;;;;;21344639;27;20282;-80
2024/02/15 09:37:49;;;;;;;;;;;6.90;99.90;;;;;;21286066;27;19915;-80
2024/02/15 09:47:50;;;;;;;;;;;7.20;99.90;;;;;;21348030;27;19911;-80
2024/02/15 09:57:51;;;;;;;;;;;7.60;99.90;;;;;;21332790;27;19915;-80
2024/02/15 10:07:51;;;;;;;;;;;8.70;99.90;;;;;;21330293;27;20423;-81
2024/02/15 10:17:56;;;;;;;;;;;9.70;99.90;;;;;;21354546;27;19963;-80
2024/02/15 10:28:06;;;;;;;;;;;11.20;99.90;;;;;;21352051;27;19911;-79
2024/02/15 10:38:11;;;;;;;;;;;11.90;99.90;;;;;;21361344;27;20398;-79
2024/02/15 10:48:13;;;;;;;;;;;11.90;99.90;;;;;;21326466;27;19912;-81
2024/02/15 10:58:16;;;;;;;;;;;12.80;99.90;;;;;;21304860;27;20418;-82
2024/02/15 11:08:17;;;;;;;;;;;12.50;99.90;;;;;;21293023;27;19915;-79
2024/02/15 11:18:36;;;;;;;;;;;13.90;99.90;;;;;;21282835;27;19986;-80
2024/02/15 11:28:38;;;;;;;;;;;13.20;99.90;;;;;;21296151;27;19958;-77
2024/02/15 11:38:41;;;;;;;;;;;13.00;99.90;;;;;;21260935;27;20297;-79
2024/02/15 11:48:42;;;;;;;;;;;13.70;99.90;;;;;;21312396;27;19934;-78
2024/02/15 11:58:51;;;;;;;;;;;13.50;99.90;;;;;;21298590;27;19915;-81
2024/02/15 12:19:12;;;;;;;;;;;14.30;99.90;;;;;;21187112;27;19915;-79
2024/02/15 12:29:16;;;;;;;;;;;14.70;99.90;;;;;;21210528;27;20006;-80
2024/02/15 12:39:23;;;;;;;;;;;14.00;99.90;;;;;;21227845;27;19922;-80
2024/02/15 12:49:24;;;;;;;;;;;13.90;99.90;;;;;;21213638;27;19916;-78
2024/02/15 12:59:25;;;;;;;;;;;13.70;99.90;;;;;;21202992;28;19930;-80
2024/02/15 13:09:25;;;;;;;;;;;14.40;99.90;;;;;;21266340;27;19967;-80
2024/02/15 13:19:26;;;;;;;;;;;14.80;99.90;;;;;;21298748;27;20022;-81
2024/02/15 13:29:27;;;;;;;;;;;14.40;99.90;;;;;;21318759;27;20472;-80
2024/02/15 13:39:32;;;;;;;;;;;14.30;99.90;;;;;;21350209;27;19942;-77
2024/02/15 13:49:34;;;;;;;;;;;14.10;99.90;;;;;;21335476;27;19911;-76
2024/02/15 13:59:35;;;;;;;;;;;13.80;99.90;;;;;;21314333;27;20391;-78
2024/02/15 14:09:35;;;;;;;;;;;13.80;99.90;;;;;;21292125;27;20012;-78
2024/02/15 14:19:36;;;;;;;;;;;13.80;99.90;;;;;;21288778;27;20369;-80
2024/02/15 14:29:44;;;;;;;;;;;13.60;99.90;;;;;;21292449;27;19918;-81
2024/02/15 14:39:45;;;;;;;;;;;13.40;99.90;;;;;;21279840;27;20020;-79
2024/02/15 14:49:45;;;;;;;;;;;13.30;99.90;;;;;;21293662;27;19972;-80
2024/02/15 14:59:46;;;;;;;;;;;13.30;99.90;;;;;;21278864;27;19915;-79
2024/02/15 15:20:08;;;;;;;;;;;13.20;99.90;;;;;;21283533;27;19923;-79
2024/02/15 15:30:10;;;;;;;;;;;13.00;99.90;;;;;;21296192;27;19935;-79
2024/02/15 15:40:12;;;;;;;;;;;12.80;99.90;;;;;;21281112;27;20388;-79
2024/02/15 15:50:12;;;;;;;;;;;12.70;99.90;;;;;;21263447;27;19911;-79
2024/02/15 16:00:15;;;;;;;;;;;12.60;99.90;;;;;;21260307;27;20390;-78
2024/02/15 16:10:18;;;;;;;;;;;12.50;99.90;;;;;;21258904;27;20012;-79
2024/02/15 16:20:18;;;;;;;;;;;12.20;99.90;;;;;;21266341;27;20122;-80
2024/02/15 16:30:19;;;;;;;;;;;12.10;99.90;;;;;;21261564;27;19915;-79
2024/02/15 16:40:22;;;;;;;;;;;11.70;99.90;;;;;;21258970;27;19926;-81
2024/02/15 16:50:23;;;;;;;;;;;11.30;99.90;;;;;;21269104;27;20335;-81
2024/02/15 17:00:24;;;;;;;;;;;11.20;99.90;;;;;;21272793;27;20014;-81
2024/02/15 17:10:24;;;;;;;;;;;11.00;99.90;;;;;;21279402;27;19915;-80
2024/02/15 17:20:25;;;;;;;;;;;10.80;99.90;;;;;;21314145;27;20373;-81
2024/02/15 17:30:26;;;;;;;;;;;10.90;99.90;;;;;;21282691;27;19922;-80
2024/02/15 17:40:26;;;;;;;;;;;10.90;99.90;;;;;;21302278;27;19931;-80
2024/02/15 17:50:27;;;;;;;;;;;10.80;99.90;;;;;;21290598;27;19912;-80
2024/02/15 18:00:30;;;;;;;;;;;10.70;99.90;;;;;;21266734;27;19915;-80
2024/02/15 18:10:30;;;;;;;;;;;10.60;99.90;;;;;;21231230;27;20382;-79
2024/02/15 18:20:31;;;;;;;;;;;10.60;99.90;;;;;;21221284;27;19919;-80
2024/02/15 18:30:34;;;;;;;;;;;10.30;99.90;;;;;;21240366;27;20022;-79
2024/02/15 18:40:38;;;;;;;;;;;10.20;99.90;;;;;;21231940;27;20370;-79
2024/02/15 18:50:43;;;;;;;;;;;10.00;99.90;;;;;;21236014;27;19918;-81
2024/02/15 19:00:46;;;;;;;;;;;9.80;99.90;;;;;;21205480;27;19975;-81
2024/02/15 19:10:47;;;;;;;;;;;9.80;99.90;;;;;;21256770;27;19921;-80
2024/02/15 19:20:48;;;;;;;;;;;9.90;99.90;;;;;;21266679;27;20283;-80
2024/02/15 19:30:49;;;;;;;;;;;9.70;99.90;;;;;;21252539;27;19911;-82
2024/02/15 19:40:49;;;;;;;;;;;9.60;99.90;;;;;;21262216;27;19915;-82
2024/02/15 19:50:50;;;;;;;;;;;9.60;99.90;;;;;;21266965;27;19946;-80
2024/02/15 20:00:51;;;;;;;;;;;9.70;99.90;;;;;;21261725;27;19922;-78
2024/02/15 20:10:55;;;;;;;;;;;9.50;99.90;;;;;;21236286;27;19954;-81
2024/02/15 20:20:56;;;;;;;;;;;9.40;99.90;;;;;;21261460;27;19950;-82
2024/02/15 20:30:59;;;;;;;;;;;9.10;99.90;;;;;;21255087;27;20501;-81
2024/02/15 20:41:05;;;;;;;;;;;9.10;99.90;;;;;;21251033;27;19923;-80
2024/02/15 20:51:07;;;;;;;;;;;8.80;99.90;;;;;;21208103;28;20271;-81
2024/02/15 21:01:08;;;;;;;;;;;8.70;99.90;;;;;;21195806;28;20376;-80
2024/02/15 21:11:09;;;;;;;;;;;8.70;99.90;;;;;;21210631;27;19923;-80
2024/02/15 21:21:10;;;;;;;;;;;8.50;99.90;;;;;;21263598;27;20007;-80
2024/02/15 21:31:16;;;;;;;;;;;8.30;99.90;;;;;;21255823;27;19965;-80
2024/02/15 21:41:17;;;;;;;;;;;8.30;99.90;;;;;;21192570;28;20396;-82
2024/02/15 21:51:18;;;;;;;;;;;8.20;99.90;;;;;;21194602;27;19935;-80
2024/02/15 22:01:19;;;;;;;;;;;8.30;99.90;;;;;;21221114;27;19922;-83
2024/02/15 22:11:20;;;;;;;;;;;8.50;99.90;;;;;;21257159;27;19922;-83
2024/02/15 22:21:21;;;;;;;;;;;8.50;99.90;;;;;;21242095;27;19920;-80
2024/02/15 22:31:31;;;;;;;;;;;8.60;99.90;;;;;;21275970;27;19915;-82
2024/02/15 22:41:31;;;;;;;;;;;8.50;99.90;;;;;;21244405;27;19927;-81
2024/02/15 22:51:36;;;;;;;;;;;8.40;99.90;;;;;;21226255;27;19996;-81
2024/02/15 23:01:37;;;;;;;;;;;8.40;99.90;;;;;;21270919;27;20275;-79
2024/02/15 23:11:38;;;;;;;;;;;8.40;99.90;;;;;;21304231;27;19987;-82
2024/02/15 23:21:39;;;;;;;;;;;8.50;99.90;;;;;;21324340;27;19915;-81
2024/02/15 23:31:40;;;;;;;;;;;8.50;99.90;;;;;;21278845;27;19964;-81
2024/02/15 23:41:41;;;;;;;;;;;8.60;99.90;;;;;;21309829;27;19954;-81
2024/02/15 23:51:45;;;;;;;;;;;8.90;99.90;;;;;;21273583;27;19911;-81
